Time,TemperatureF,DewpointF,PressureIn,WindDirection,WindDirectionDegrees,WindSpeedMPH,WindSpeedGustMPH,Humidity,HourlyPrecipIn,Conditions,Clouds,dailyrainin,SoftwareType,DateUTC
2013-05-17 00:01:00,60.8,60.0,29.98,SW,235,0.0,0.0,97,0.00,,,0.00,weatherlink.com 1.10,2013-05-17 04:01:00,
2013-05-17 00:16:00,60.4,60.0,29.99,SW,235,0.0,0.0,97,0.00,,,0.00,weatherlink.com 1.10,2013-05-17 04:16:00,
2013-05-17 00:31:00,60.6,60.0,29.99,SW,235,1.0,1.0,97,0.00,,,0.00,weatherlink.com 1.10,2013-05-17 04:31:00,
2013-05-17 00:46:00,60.8,60.0,29.99,East,94,0.0,0.0,98,0.00,,,0.00,weatherlink.com 1.10,2013-05-17 04:46:00,
2013-05-17 01:01:00,60.4,60.0,30.00,East,95,0.0,1.0,97,0.00,,,0.00,weatherlink.com 1.10,2013-05-17 05:01:00,
2013-05-17 01:16:00,59.8,59.0,29.99,East,94,0.0,0.0,97,0.00,,,0.00,weatherlink.com 1.10,2013-05-17 05:16:00,
2013-05-17 01:31:00,59.7,59.0,30.00,East,94,0.0,0.0,97,0.00,,,0.00,weatherlink.com 1.10,2013-05-17 05:31:00,
2013-05-17 01:46:00,60.0,60.0,29.99,East,96,0.0,1.0,98,0.00,,,0.00,weatherlink.com 1.10,2013-05-17 05:46:00,
2013-05-17 02:01:00,60.2,60.0,29.99,East,96,0.0,0.0,98,0.00,,,0.00,weatherlink.com 1.10,2013-05-17 06:01:00,
2013-05-17 02:16:00,60.4,60.0,30.00,SW,224,0.0,1.0,98,0.00,,,0.00,weatherlink.com 1.10,2013-05-17 06:16:00,
2013-05-17 02:31:00,60.5,60.0,30.00,SW,229,0.0,1.0,98,0.00,,,0.00,weatherlink.com 1.10,2013-05-17 06:31:00,
2013-05-17 02:46:00,60.6,60.0,30.00,SW,229,0.0,1.0,98,0.00,,,0.00,weatherlink.com 1.10,2013-05-17 06:46:00,
2013-05-17 03:01:00,60.6,60.0,30.00,SW,229,0.0,0.0,98,0.00,,,0.00,weatherlink.com 1.10,2013-05-17 07:01:00,
2013-05-17 03:16:00,60.4,60.0,30.00,SW,229,0.0,0.0,98,0.00,,,0.00,weatherlink.com 1.10,2013-05-17 07:16:00,
2013-05-17 03:31:00,60.3,60.0,30.01,SW,229,0.0,1.0,98,0.00,,,0.00,weatherlink.com 1.10,2013-05-17 07:31:00,
2013-05-17 03:46:00,60.3,60.0,30.01,SW,229,0.0,0.0,98,0.00,,,0.00,weatherlink.com 1.10,2013-05-17 07:46:00,
2013-05-17 04:01:00,60.2,60.0,30.02,SW,229,0.0,0.0,98,0.00,,,0.00,weatherlink.com 1.10,2013-05-17 08:01:00,
2013-05-17 04:16:00,60.1,60.0,30.02,SW,229,0.0,0.0,98,0.00,,,0.00,weatherlink.com 1.10,2013-05-17 08:16:00,
2013-05-17 04:32:00,60.0,60.0,30.03,SW,229,0.0,0.0,98,0.00,,,0.00,weatherlink.com 1.10,2013-05-17 08:32:00,
2013-05-17 04:47:00,60.0,60.0,30.03,SW,229,0.0,0.0,98,0.00,,,0.00,weatherlink.com 1.10,2013-05-17 08:47:00,
2013-05-17 05:02:00,60.0,60.0,30.03,SW,229,0.0,0.0,98,0.00,,,0.00,weatherlink.com 1.10,2013-05-17 09:02:00,
2013-05-17 05:17:00,60.1,60.0,30.04,SW,229,0.0,0.0,98,0.00,,,0.00,weatherlink.com 1.10,2013-05-17 09:17:00,
2013-05-17 05:32:00,60.0,60.0,30.05,SW,229,0.0,0.0,98,0.00,,,0.00,weatherlink.com 1.10,2013-05-17 09:32:00,
2013-05-17 05:47:00,59.8,59.0,30.05,SW,229,0.0,1.0,98,0.00,,,0.00,weatherlink.com 1.10,2013-05-17 09:47:00,
2013-05-17 06:02:00,60.0,60.0,30.06,SSW,201,1.0,2.0,98,0.00,,,0.00,weatherlink.com 1.10,2013-05-17 10:02:00,
2013-05-17 06:17:00,60.0,60.0,30.06,East,85,1.0,2.0,98,0.00,,,0.00,weatherlink.com 1.10,2013-05-17 10:17:00,
2013-05-17 06:32:00,59.9,59.0,30.07,East,85,0.0,0.0,98,0.00,,,0.00,weatherlink.com 1.10,2013-05-17 10:32:00,
2013-05-17 06:47:00,60.1,60.0,30.07,East,85,0.0,1.0,98,0.00,,,0.00,weatherlink.com 1.10,2013-05-17 10:47:00,
2013-05-17 07:02:00,60.2,60.0,30.08,ESE,115,1.0,2.0,98,0.00,,,0.00,weatherlink.com 1.10,2013-05-17 11:02:00,
2013-05-17 07:17:00,60.4,60.0,30.08,SSW,203,1.0,2.0,98,0.00,,,0.00,weatherlink.com 1.10,2013-05-17 11:17:00,
2013-05-17 07:32:00,60.4,60.0,30.09,NW,325,0.0,1.0,98,0.00,,,0.00,weatherlink.com 1.10,2013-05-17 11:32:00,
2013-05-17 07:47:00,60.8,60.0,30.09,NW,325,0.0,1.0,98,0.00,,,0.00,weatherlink.com 1.10,2013-05-17 11:47:00,
2013-05-17 08:02:00,62.6,62.0,30.09,ESE,115,2.0,2.0,97,0.00,,,0.00,weatherlink.com 1.10,2013-05-17 12:02:00,
2013-05-17 08:17:00,64.5,62.0,30.09,ESE,120,2.0,3.0,92,0.00,,,0.00,weatherlink.com 1.10,2013-05-17 12:17:00,
2013-05-17 08:32:00,65.8,63.0,30.09,South,177,1.0,2.0,90,0.00,,,0.00,weatherlink.com 1.10,2013-05-17 12:32:00,
2013-05-17 08:47:00,67.3,62.0,30.10,ESE,117,0.0,1.0,84,0.00,,,0.00,weatherlink.com 1.10,2013-05-17 12:47:00,
2013-05-17 09:02:00,68.4,63.0,30.10,NW,314,1.0,3.0,82,0.00,,,0.00,weatherlink.com 1.10,2013-05-17 13:02:00,
2013-05-17 09:17:00,68.5,63.0,30.10,West,281,1.0,3.0,81,0.00,,,0.00,weatherlink.com 1.10,2013-05-17 13:17:00,
2013-05-17 09:32:00,69.7,63.0,30.10,NW,311,2.0,2.0,80,0.00,,,0.00,weatherlink.com 1.10,2013-05-17 13:32:00,
2013-05-17 09:47:00,70.2,63.0,30.10,ESE,110,1.0,3.0,78,0.00,,,0.00,weatherlink.com 1.10,2013-05-17 13:47:00,
2013-05-17 10:02:00,69.8,63.0,30.10,SE,132,3.0,3.0,79,0.00,,,0.00,weatherlink.com 1.10,2013-05-17 14:02:00,
2013-05-17 10:17:00,70.7,63.0,30.10,WNW,295,2.0,3.0,76,0.00,,,0.00,weatherlink.com 1.10,2013-05-17 14:17:00,
2013-05-17 10:32:00,71.3,63.0,30.10,SSE,156,4.0,5.0,75,0.00,,,0.00,weatherlink.com 1.10,2013-05-17 14:32:00,
2013-05-17 10:47:00,71.6,63.0,30.10,South,186,2.0,3.0,74,0.00,,,0.00,weatherlink.com 1.10,2013-05-17 14:47:00,
2013-05-17 11:02:00,72.7,63.0,30.09,ESE,110,1.0,4.0,71,0.00,,,0.00,weatherlink.com 1.10,2013-05-17 15:02:00,
2013-05-17 11:17:00,73.5,62.0,30.09,WSW,257,1.0,3.0,68,0.00,,,0.00,weatherlink.com 1.10,2013-05-17 15:17:00,
2013-05-17 11:33:00,74.6,62.0,30.09,SSE,150,2.0,3.0,64,0.00,,,0.00,weatherlink.com 1.10,2013-05-17 15:33:00,
2013-05-17 11:48:00,74.9,62.0,30.08,NNW,332,0.0,4.0,64,0.00,,,0.00,weatherlink.com 1.10,2013-05-17 15:48:00,
2013-05-17 12:03:00,76.2,63.0,30.08,ESE,111,3.0,4.0,63,0.00,,,0.00,weatherlink.com 1.10,2013-05-17 16:03:00,
2013-05-17 12:18:00,76.6,62.0,30.07,East,99,1.0,3.0,60,0.00,,,0.00,weatherlink.com 1.10,2013-05-17 16:18:00,
2013-05-17 12:33:00,76.9,61.0,30.07,ESE,115,1.0,3.0,58,0.00,,,0.00,weatherlink.com 1.10,2013-05-17 16:33:00,
2013-05-17 12:48:00,76.5,60.0,30.07,SSE,152,1.0,4.0,56,0.00,,,0.00,weatherlink.com 1.10,2013-05-17 16:48:00,
2013-05-17 13:03:00,77.2,61.0,30.06,ENE,67,1.0,4.0,58,0.00,,,0.00,weatherlink.com 1.10,2013-05-17 17:03:00,
2013-05-17 13:18:00,76.6,60.0,30.06,SE,126,3.0,4.0,57,0.00,,,0.00,weatherlink.com 1.10,2013-05-17 17:18:00,
2013-05-17 13:33:00,77.0,58.0,30.06,SE,146,1.0,3.0,52,0.00,,,0.00,weatherlink.com 1.10,2013-05-17 17:33:00,
2013-05-17 13:48:00,77.7,59.0,30.05,SE,129,0.0,4.0,53,0.00,,,0.00,weatherlink.com 1.10,2013-05-17 17:48:00,
2013-05-17 14:03:00,77.8,55.0,30.05,ESE,107,2.0,4.0,45,0.00,,,0.00,weatherlink.com 1.10,2013-05-17 18:03:00,
2013-05-17 14:18:00,78.5,57.0,30.05,ESE,120,2.0,4.0,48,0.00,,,0.00,weatherlink.com 1.10,2013-05-17 18:18:00,
2013-05-17 14:33:00,79.0,58.0,30.05,ESE,113,0.0,2.0,48,0.00,,,0.00,weatherlink.com 1.10,2013-05-17 18:33:00,
2013-05-17 14:48:00,79.4,59.0,30.04,East,92,1.0,3.0,49,0.00,,,0.00,weatherlink.com 1.10,2013-05-17 18:48:00,
2013-05-17 15:03:00,79.9,58.0,30.04,NW,308,1.0,4.0,48,0.00,,,0.00,weatherlink.com 1.10,2013-05-17 19:03:00,
2013-05-17 15:18:00,79.7,56.0,30.03,ESE,123,1.0,4.0,44,0.00,,,0.00,weatherlink.com 1.10,2013-05-17 19:18:00,
2013-05-17 15:33:00,79.9,57.0,30.03,WNW,283,1.0,3.0,45,0.00,,,0.00,weatherlink.com 1.10,2013-05-17 19:33:00,
2013-05-17 15:48:00,81.2,55.0,30.02,SE,143,0.0,3.0,41,0.00,,,0.00,weatherlink.com 1.10,2013-05-17 19:48:00,
2013-05-17 16:03:00,80.9,55.0,30.02,WSW,240,1.0,3.0,41,0.00,,,0.00,weatherlink.com 1.10,2013-05-17 20:03:00,
2013-05-17 16:18:00,80.3,58.0,30.02,West,273,0.0,3.0,46,0.00,,,0.00,weatherlink.com 1.10,2013-05-17 20:18:00,
2013-05-17 16:33:00,80.6,57.0,30.02,West,280,0.0,5.0,44,0.00,,,0.00,weatherlink.com 1.10,2013-05-17 20:33:00,
2013-05-17 16:48:00,81.3,57.0,30.01,SSW,207,1.0,3.0,43,0.00,,,0.00,weatherlink.com 1.10,2013-05-17 20:48:00,
2013-05-17 17:03:00,80.5,52.0,30.01,WNW,282,0.0,2.0,37,0.00,,,0.00,weatherlink.com 1.10,2013-05-17 21:03:00,
2013-05-17 17:18:00,80.6,55.0,30.01,SW,232,1.0,2.0,41,0.00,,,0.00,weatherlink.com 1.10,2013-05-17 21:18:00,
2013-05-17 17:33:00,79.8,57.0,30.01,SW,225,0.0,3.0,45,0.00,,,0.00,weatherlink.com 1.10,2013-05-17 21:33:00,
2013-05-17 17:48:00,81.3,53.0,30.01,WNW,288,0.0,1.0,37,0.00,,,0.00,weatherlink.com 1.10,2013-05-17 21:48:00,
2013-05-17 18:03:00,80.0,55.0,30.01,SW,229,0.0,2.0,43,0.00,,,0.00,weatherlink.com 1.10,2013-05-17 22:03:00,
2013-05-17 18:18:00,78.3,57.0,30.01,WSW,250,0.0,1.0,48,0.00,,,0.00,weatherlink.com 1.10,2013-05-17 22:18:00,
2013-05-17 18:33:00,76.6,58.0,30.01,WSW,250,0.0,1.0,53,0.00,,,0.00,weatherlink.com 1.10,2013-05-17 22:33:00,
2013-05-17 18:48:00,74.9,56.0,30.01,WSW,250,0.0,1.0,53,0.00,,,0.00,weatherlink.com 1.10,2013-05-17 22:48:00,
2013-05-17 19:03:00,74.2,58.0,30.01,WSW,250,0.0,1.0,58,0.00,,,0.00,weatherlink.com 1.10,2013-05-17 23:03:00,
2013-05-17 19:18:00,73.1,59.0,30.02,WSW,250,0.0,0.0,61,0.00,,,0.00,weatherlink.com 1.10,2013-05-17 23:18:00,
2013-05-17 19:33:00,72.1,58.0,30.02,WSW,250,0.0,0.0,62,0.00,,,0.00,weatherlink.com 1.10,2013-05-17 23:33:00,
2013-05-17 19:48:00,71.3,57.0,30.03,WSW,250,0.0,1.0,61,0.00,,,0.00,weatherlink.com 1.10,2013-05-17 23:48:00,
2013-05-17 20:03:00,70.4,56.0,30.03,WSW,250,0.0,0.0,61,0.00,,,0.00,weatherlink.com 1.10,2013-05-18 00:03:00,
2013-05-17 20:18:00,69.7,59.0,30.03,WSW,250,0.0,0.0,69,0.00,,,0.00,weatherlink.com 1.10,2013-05-18 00:18:00,
2013-05-17 20:33:00,68.6,58.0,30.04,WSW,250,0.0,0.0,70,0.00,,,0.00,weatherlink.com 1.10,2013-05-18 00:33:00,
2013-05-17 20:48:00,67.4,58.0,30.04,WSW,250,0.0,0.0,72,0.00,,,0.00,weatherlink.com 1.10,2013-05-18 00:48:00,
2013-05-17 21:03:00,66.4,58.0,30.05,WSW,250,0.0,0.0,74,0.00,,,0.00,weatherlink.com 1.10,2013-05-18 01:03:00,
2013-05-17 21:18:00,65.4,58.0,30.05,WSW,250,0.0,0.0,77,0.00,,,0.00,weatherlink.com 1.10,2013-05-18 01:18:00,
2013-05-17 21:33:00,64.6,58.0,30.06,WSW,250,0.0,0.0,79,0.00,,,0.00,weatherlink.com 1.10,2013-05-18 01:33:00,
2013-05-17 21:48:00,63.8,58.0,30.07,WSW,250,0.0,0.0,81,0.00,,,0.00,weatherlink.com 1.10,2013-05-18 01:48:00,
2013-05-17 22:03:00,63.0,57.0,30.07,WSW,250,0.0,1.0,82,0.00,,,0.00,weatherlink.com 1.10,2013-05-18 02:03:00,
2013-05-17 22:18:00,62.4,57.0,30.07,WSW,253,0.0,0.0,83,0.00,,,0.00,weatherlink.com 1.10,2013-05-18 02:18:00,
2013-05-17 22:33:00,62.0,58.0,30.07,WSW,253,0.0,0.0,85,0.00,,,0.00,weatherlink.com 1.10,2013-05-18 02:33:00,
2013-05-17 22:48:00,61.4,57.0,30.07,WSW,253,0.0,0.0,85,0.00,,,0.00,weatherlink.com 1.10,2013-05-18 02:48:00,
2013-05-17 23:03:00,60.9,57.0,30.07,WSW,253,0.0,0.0,86,0.00,,,0.00,weatherlink.com 1.10,2013-05-18 03:03:00,
2013-05-17 23:18:00,60.3,57.0,30.07,WSW,253,0.0,0.0,87,0.00,,,0.00,weatherlink.com 1.10,2013-05-18 03:18:00,
2013-05-17 23:33:00,60.0,57.0,30.07,WSW,253,0.0,0.0,88,0.00,,,0.00,weatherlink.com 1.10,2013-05-18 03:33:00,
2013-05-17 23:48:00,59.6,56.0,30.07,WSW,253,0.0,0.0,88,0.00,,,0.00,weatherlink.com 1.10,2013-05-18 03:48:00,